createdAt,value
2024-05-09T00:23:43.219Z,14
2024-05-09T00:51:59.522Z,17
2024-05-09T01:20:58.378Z,16
2024-05-09T01:49:52.245Z,16
2024-05-09T02:18:42.384Z,17
2024-05-09T02:47:29.286Z,19
2024-05-09T03:16:09.674Z,16
2024-05-09T03:45:04.892Z,17
2024-05-09T04:13:59.550Z,17
2024-05-09T04:43:00.914Z,17
2024-05-09T05:12:21.671Z,17
2024-05-09T05:41:16.853Z,16
2024-05-09T06:10:34.018Z,16
2024-05-09T06:38:49.875Z,17
2024-05-09T07:07:50.558Z,17
2024-05-09T07:36:57.754Z,17
2024-05-09T08:06:00.276Z,16
2024-05-09T08:34:52.225Z,16
2024-05-09T09:03:51.254Z,14
2024-05-09T09:32:33.409Z,13
2024-05-09T10:01:28.531Z,11
2024-05-09T10:30:29.309Z,11
2024-05-09T10:58:13.422Z,10
2024-05-09T11:27:00.238Z,10
2024-05-09T11:56:07.590Z,7
2024-05-09T12:25:06.540Z,8
2024-05-09T12:53:54.304Z,7
2024-05-09T13:22:48.367Z,7
2024-05-09T13:51:50.377Z,7
2024-05-09T14:20:46.889Z,7
2024-05-09T14:49:43.750Z,7
2024-05-09T15:18:44.075Z,8
2024-05-09T15:47:16.297Z,7
2024-05-09T16:16:12.212Z,7
2024-05-09T16:45:05.166Z,8
2024-05-09T17:13:59.724Z,8
2024-05-09T17:42:50.910Z,7
2024-05-09T18:11:46.200Z,7
2024-05-09T18:40:48.855Z,9
2024-05-09T19:09:06.913Z,8
2024-05-09T19:37:36.640Z,10
2024-05-09T20:05:52.114Z,11
2024-05-09T20:34:04.794Z,8
2024-05-09T21:02:42.571Z,10
2024-05-09T21:31:21.840Z,10
2024-05-09T22:00:14.385Z,8
2024-05-09T22:28:32.133Z,11
2024-05-09T22:57:29.528Z,11
2024-05-09T23:26:25.706Z,10
2024-05-09T23:55:33.485Z,11
